sensor_id;sensor_type;location;lat;lon;timestamp;P1;durP1;ratioP1;P2;durP2;ratioP2
57071;SDS011;42956;51.366;11.298;2023-07-29T00:02:28;1.70;;;1.60;;
57071;SDS011;42956;51.366;11.298;2023-07-29T00:04:59;1.27;;;1.10;;
57071;SDS011;42956;51.366;11.298;2023-07-29T00:07:30;2.85;;;1.50;;
57071;SDS011;42956;51.366;11.298;2023-07-29T00:10:02;1.33;;;1.23;;
57071;SDS011;42956;51.366;11.298;2023-07-29T00:12:32;2.20;;;1.10;;
57071;SDS011;42956;51.366;11.298;2023-07-29T00:15:02;1.25;;;1.15;;
57071;SDS011;42956;51.366;11.298;2023-07-29T00:17:33;1.23;;;1.13;;
57071;SDS011;42956;51.366;11.298;2023-07-29T00:20:03;1.52;;;1.42;;
57071;SDS011;42956;51.366;11.298;2023-07-29T00:22:35;1.27;;;1.17;;
57071;SDS011;42956;51.366;11.298;2023-07-29T00:25:08;1.75;;;1.40;;
57071;SDS011;42956;51.366;11.298;2023-07-29T00:27:37;2.17;;;1.30;;
57071;SDS011;42956;51.366;11.298;2023-07-29T00:30:08;1.40;;;1.30;;
57071;SDS011;42956;51.366;11.298;2023-07-29T00:32:38;1.92;;;1.20;;
57071;SDS011;42956;51.366;11.298;2023-07-29T00:35:08;2.00;;;1.70;;
57071;SDS011;42956;51.366;11.298;2023-07-29T00:37:38;1.67;;;1.58;;
57071;SDS011;42956;51.366;11.298;2023-07-29T00:40:12;1.85;;;1.73;;
57071;SDS011;42956;51.366;11.298;2023-07-29T00:42:43;2.80;;;2.00;;
57071;SDS011;42956;51.366;11.298;2023-07-29T00:45:13;1.48;;;1.38;;
57071;SDS011;42956;51.366;11.298;2023-07-29T00:47:43;2.63;;;1.60;;
57071;SDS011;42956;51.366;11.298;2023-07-29T00:50:14;1.80;;;1.40;;
57071;SDS011;42956;51.366;11.298;2023-07-29T00:52:44;1.60;;;1.50;;
57071;SDS011;42956;51.366;11.298;2023-07-29T00:55:17;1.92;;;1.75;;
57071;SDS011;42956;51.366;11.298;2023-07-29T00:57:47;2.33;;;1.50;;
57071;SDS011;42956;51.366;11.298;2023-07-29T01:00:18;2.97;;;1.77;;
57071;SDS011;42956;51.366;11.298;2023-07-29T01:02:48;2.08;;;1.38;;
57071;SDS011;42956;51.366;11.298;2023-07-29T01:05:19;1.67;;;1.58;;
57071;SDS011;42956;51.366;11.298;2023-07-29T01:07:51;3.42;;;2.65;;
57071;SDS011;42956;51.366;11.298;2023-07-29T01:10:30;3.63;;;1.42;;
57071;SDS011;42956;51.366;11.298;2023-07-29T01:13:02;1.85;;;1.75;;
57071;SDS011;42956;51.366;11.298;2023-07-29T01:15:36;2.50;;;1.50;;
57071;SDS011;42956;51.366;11.298;2023-07-29T01:20:38;1.70;;;1.60;;
57071;SDS011;42956;51.366;11.298;2023-07-29T01:23:09;2.10;;;1.63;;
57071;SDS011;42956;51.366;11.298;2023-07-29T01:25:42;1.70;;;1.60;;
57071;SDS011;42956;51.366;11.298;2023-07-29T01:28:12;2.03;;;1.85;;
57071;SDS011;42956;51.366;11.298;2023-07-29T01:30:43;1.80;;;1.50;;
57071;SDS011;42956;51.366;11.298;2023-07-29T01:33:14;1.95;;;1.63;;
57071;SDS011;42956;51.366;11.298;2023-07-29T01:35:46;3.58;;;2.13;;
57071;SDS011;42956;51.366;11.298;2023-07-29T01:38:18;8.82;;;2.03;;
57071;SDS011;42956;51.366;11.298;2023-07-29T01:40:51;2.15;;;1.52;;
57071;SDS011;42956;51.366;11.298;2023-07-29T01:43:21;3.90;;;1.65;;
57071;SDS011;42956;51.366;11.298;2023-07-29T01:45:52;2.13;;;1.58;;
57071;SDS011;42956;51.366;11.298;2023-07-29T01:48:23;2.80;;;1.95;;
57071;SDS011;42956;51.366;11.298;2023-07-29T01:50:54;1.75;;;1.65;;
57071;SDS011;42956;51.366;11.298;2023-07-29T01:53:24;2.67;;;2.10;;
57071;SDS011;42956;51.366;11.298;2023-07-29T01:55:57;1.90;;;1.80;;
57071;SDS011;42956;51.366;11.298;2023-07-29T01:58:27;2.03;;;1.80;;
57071;SDS011;42956;51.366;11.298;2023-07-29T02:00:57;3.30;;;2.33;;
57071;SDS011;42956;51.366;11.298;2023-07-29T02:03:27;2.65;;;1.85;;
57071;SDS011;42956;51.366;11.298;2023-07-29T02:05:57;2.67;;;2.00;;
57071;SDS011;42956;51.366;11.298;2023-07-29T02:08:27;4.45;;;1.98;;
57071;SDS011;42956;51.366;11.298;2023-07-29T02:11:00;1.60;;;1.50;;
57071;SDS011;42956;51.366;11.298;2023-07-29T02:13:30;1.90;;;1.77;;
57071;SDS011;42956;51.366;11.298;2023-07-29T02:16:00;2.25;;;1.80;;
57071;SDS011;42956;51.366;11.298;2023-07-29T02:18:30;2.50;;;2.03;;
57071;SDS011;42956;51.366;11.298;2023-07-29T02:21:00;3.25;;;2.10;;
57071;SDS011;42956;51.366;11.298;2023-07-29T02:23:30;2.50;;;2.20;;
57071;SDS011;42956;51.366;11.298;2023-07-29T02:26:03;2.90;;;1.85;;
57071;SDS011;42956;51.366;11.298;2023-07-29T02:28:33;2.95;;;2.20;;
57071;SDS011;42956;51.366;11.298;2023-07-29T02:31:09;2.20;;;2.00;;
57071;SDS011;42956;51.366;11.298;2023-07-29T02:33:39;2.67;;;1.98;;
57071;SDS011;42956;51.366;11.298;2023-07-29T02:36:09;2.60;;;2.10;;
57071;SDS011;42956;51.366;11.298;2023-07-29T02:38:39;1.95;;;1.85;;
57071;SDS011;42956;51.366;11.298;2023-07-29T02:41:12;2.42;;;1.95;;
57071;SDS011;42956;51.366;11.298;2023-07-29T02:43:43;3.50;;;2.28;;
57071;SDS011;42956;51.366;11.298;2023-07-29T02:46:13;1.55;;;1.45;;
57071;SDS011;42956;51.366;11.298;2023-07-29T02:48:44;3.20;;;2.50;;
57071;SDS011;42956;51.366;11.298;2023-07-29T02:51:14;2.58;;;2.38;;
57071;SDS011;42956;51.366;11.298;2023-07-29T02:53:43;2.47;;;2.28;;
57071;SDS011;42956;51.366;11.298;2023-07-29T02:56:16;4.35;;;1.75;;
57071;SDS011;42956;51.366;11.298;2023-07-29T02:58:46;1.98;;;1.85;;
57071;SDS011;42956;51.366;11.298;2023-07-29T03:01:20;5.53;;;1.75;;
57071;SDS011;42956;51.366;11.298;2023-07-29T03:03:51;1.85;;;1.75;;
57071;SDS011;42956;51.366;11.298;2023-07-29T03:06:21;2.55;;;1.98;;
57071;SDS011;42956;51.366;11.298;2023-07-29T03:08:51;2.90;;;1.85;;
57071;SDS011;42956;51.366;11.298;2023-07-29T03:11:24;3.22;;;2.13;;
57071;SDS011;42956;51.366;11.298;2023-07-29T03:13:54;2.13;;;1.85;;
57071;SDS011;42956;51.366;11.298;2023-07-29T03:16:24;3.08;;;1.90;;
57071;SDS011;42956;51.366;11.298;2023-07-29T03:18:54;3.55;;;2.25;;
57071;SDS011;42956;51.366;11.298;2023-07-29T03:21:24;2.45;;;2.08;;
57071;SDS011;42956;51.366;11.298;2023-07-29T03:23:54;2.83;;;2.03;;
57071;SDS011;42956;51.366;11.298;2023-07-29T03:26:26;2.20;;;2.00;;
57071;SDS011;42956;51.366;11.298;2023-07-29T03:28:56;1.95;;;1.83;;
57071;SDS011;42956;51.366;11.298;2023-07-29T03:31:26;3.38;;;1.98;;
57071;SDS011;42956;51.366;11.298;2023-07-29T03:33:56;2.33;;;2.00;;
57071;SDS011;42956;51.366;11.298;2023-07-29T03:36:26;2.58;;;2.00;;
57071;SDS011;42956;51.366;11.298;2023-07-29T03:38:56;2.47;;;2.15;;
57071;SDS011;42956;51.366;11.298;2023-07-29T03:41:30;2.17;;;1.98;;
57071;SDS011;42956;51.366;11.298;2023-07-29T03:46:30;2.97;;;2.10;;
57071;SDS011;42956;51.366;11.298;2023-07-29T03:49:01;4.18;;;2.75;;
57071;SDS011;42956;51.366;11.298;2023-07-29T03:51:31;3.53;;;1.85;;
57071;SDS011;42956;51.366;11.298;2023-07-29T03:54:02;4.50;;;1.77;;
57071;SDS011;42956;51.366;11.298;2023-07-29T03:56:34;4.15;;;2.50;;
57071;SDS011;42956;51.366;11.298;2023-07-29T03:59:05;2.20;;;2.00;;
57071;SDS011;42956;51.366;11.298;2023-07-29T04:01:35;1.90;;;1.67;;
57071;SDS011;42956;51.366;11.298;2023-07-29T04:04:05;3.83;;;1.85;;
57071;SDS011;42956;51.366;11.298;2023-07-29T04:06:35;1.73;;;1.63;;
57071;SDS011;42956;51.366;11.298;2023-07-29T04:09:06;2.47;;;2.10;;
57071;SDS011;42956;51.366;11.298;2023-07-29T04:11:39;2.58;;;1.58;;
57071;SDS011;42956;51.366;11.298;2023-07-29T04:14:08;2.65;;;2.10;;
57071;SDS011;42956;51.366;11.298;2023-07-29T04:16:39;1.90;;;1.52;;
57071;SDS011;42956;51.366;11.298;2023-07-29T04:19:08;2.88;;;1.80;;
57071;SDS011;42956;51.366;11.298;2023-07-29T04:21:39;2.25;;;1.77;;
57071;SDS011;42956;51.366;11.298;2023-07-29T04:24:09;2.60;;;1.77;;
57071;SDS011;42956;51.366;11.298;2023-07-29T04:26:41;4.97;;;2.30;;
57071;SDS011;42956;51.366;11.298;2023-07-29T04:31:41;3.60;;;1.90;;
57071;SDS011;42956;51.366;11.298;2023-07-29T04:34:12;3.05;;;2.03;;
57071;SDS011;42956;51.366;11.298;2023-07-29T04:36:42;2.03;;;1.83;;
57071;SDS011;42956;51.366;11.298;2023-07-29T04:39:12;2.85;;;2.10;;
57071;SDS011;42956;51.366;11.298;2023-07-29T04:41:45;3.63;;;2.50;;
57071;SDS011;42956;51.366;11.298;2023-07-29T04:44:14;1.67;;;1.52;;
57071;SDS011;42956;51.366;11.298;2023-07-29T04:46:44;1.77;;;1.67;;
57071;SDS011;42956;51.366;11.298;2023-07-29T04:49:14;3.08;;;1.48;;
57071;SDS011;42956;51.366;11.298;2023-07-29T04:51:44;2.35;;;1.60;;
57071;SDS011;42956;51.366;11.298;2023-07-29T04:54:14;1.67;;;1.58;;
57071;SDS011;42956;51.366;11.298;2023-07-29T04:56:46;1.70;;;1.60;;
57071;SDS011;42956;51.366;11.298;2023-07-29T04:59:16;1.88;;;1.65;;
57071;SDS011;42956;51.366;11.298;2023-07-29T05:01:46;3.15;;;1.42;;
57071;SDS011;42956;51.366;11.298;2023-07-29T05:04:20;2.20;;;2.00;;
57071;SDS011;42956;51.366;11.298;2023-07-29T05:06:50;3.00;;;1.90;;
57071;SDS011;42956;51.366;11.298;2023-07-29T05:09:20;1.70;;;1.60;;
57071;SDS011;42956;51.366;11.298;2023-07-29T05:11:56;2.15;;;1.92;;
57071;SDS011;42956;51.366;11.298;2023-07-29T05:14:26;2.17;;;1.98;;
57071;SDS011;42956;51.366;11.298;2023-07-29T05:16:56;2.13;;;1.70;;
57071;SDS011;42956;51.366;11.298;2023-07-29T05:19:26;2.08;;;1.83;;
57071;SDS011;42956;51.366;11.298;2023-07-29T05:21:56;2.28;;;1.55;;
57071;SDS011;42956;51.366;11.298;2023-07-29T05:24:26;2.65;;;1.80;;
57071;SDS011;42956;51.366;11.298;2023-07-29T05:26:59;5.38;;;1.67;;
57071;SDS011;42956;51.366;11.298;2023-07-29T05:29:29;3.55;;;1.63;;
57071;SDS011;42956;51.366;11.298;2023-07-29T05:31:59;2.28;;;1.70;;
57071;SDS011;42956;51.366;11.298;2023-07-29T05:34:29;2.38;;;1.80;;
57071;SDS011;42956;51.366;11.298;2023-07-29T05:36:59;1.88;;;1.48;;
57071;SDS011;42956;51.366;11.298;2023-07-29T05:39:29;2.78;;;1.98;;
57071;SDS011;42956;51.366;11.298;2023-07-29T05:42:08;5.00;;;1.88;;
57071;SDS011;42956;51.366;11.298;2023-07-29T05:44:37;6.13;;;1.60;;
57071;SDS011;42956;51.366;11.298;2023-07-29T05:47:08;1.83;;;1.50;;
57071;SDS011;42956;51.366;11.298;2023-07-29T05:49:38;2.03;;;1.52;;
57071;SDS011;42956;51.366;11.298;2023-07-29T05:52:08;3.53;;;2.05;;
57071;SDS011;42956;51.366;11.298;2023-07-29T05:54:38;3.42;;;1.60;;
57071;SDS011;42956;51.366;11.298;2023-07-29T05:57:12;3.13;;;1.45;;
57071;SDS011;42956;51.366;11.298;2023-07-29T05:59:42;1.73;;;1.63;;
57071;SDS011;42956;51.366;11.298;2023-07-29T06:02:12;2.08;;;1.48;;
57071;SDS011;42956;51.366;11.298;2023-07-29T06:04:42;8.07;;;1.50;;
57071;SDS011;42956;51.366;11.298;2023-07-29T06:07:12;3.33;;;1.58;;
57071;SDS011;42956;51.366;11.298;2023-07-29T06:09:42;1.33;;;1.23;;
57071;SDS011;42956;51.366;11.298;2023-07-29T06:12:15;1.75;;;1.30;;
57071;SDS011;42956;51.366;11.298;2023-07-29T06:14:44;2.35;;;1.35;;
57071;SDS011;42956;51.366;11.298;2023-07-29T06:17:15;2.90;;;1.17;;
57071;SDS011;42956;51.366;11.298;2023-07-29T06:19:45;1.63;;;1.13;;
57071;SDS011;42956;51.366;11.298;2023-07-29T06:22:15;0.80;;;0.80;;
57071;SDS011;42956;51.366;11.298;2023-07-29T06:24:45;1.52;;;1.05;;
57071;SDS011;42956;51.366;11.298;2023-07-29T06:27:17;3.90;;;1.38;;
57071;SDS011;42956;51.366;11.298;2023-07-29T06:29:47;1.05;;;0.95;;
57071;SDS011;42956;51.366;11.298;2023-07-29T06:32:17;1.17;;;1.10;;
57071;SDS011;42956;51.366;11.298;2023-07-29T06:34:47;1.38;;;1.23;;
57071;SDS011;42956;51.366;11.298;2023-07-29T06:37:18;6.38;;;1.27;;
57071;SDS011;42956;51.366;11.298;2023-07-29T06:39:48;2.80;;;1.08;;
57071;SDS011;42956;51.366;11.298;2023-07-29T06:42:21;1.65;;;1.40;;
57071;SDS011;42956;51.366;11.298;2023-07-29T06:44:51;1.30;;;1.20;;
57071;SDS011;42956;51.366;11.298;2023-07-29T06:47:21;1.83;;;1.20;;
57071;SDS011;42956;51.366;11.298;2023-07-29T06:49:51;3.20;;;0.90;;
57071;SDS011;42956;51.366;11.298;2023-07-29T06:52:24;1.10;;;1.00;;
57071;SDS011;42956;51.366;11.298;2023-07-29T06:54:54;3.58;;;1.20;;
57071;SDS011;42956;51.366;11.298;2023-07-29T06:57:27;1.55;;;1.15;;
57071;SDS011;42956;51.366;11.298;2023-07-29T06:59:57;5.57;;;1.60;;
57071;SDS011;42956;51.366;11.298;2023-07-29T07:02:26;1.60;;;1.50;;
57071;SDS011;42956;51.366;11.298;2023-07-29T07:04:56;1.17;;;1.10;;
57071;SDS011;42956;51.366;11.298;2023-07-29T07:07:26;1.48;;;1.38;;
57071;SDS011;42956;51.366;11.298;2023-07-29T07:09:57;1.30;;;1.20;;
57071;SDS011;42956;51.366;11.298;2023-07-29T07:12:38;2.63;;;1.30;;
57071;SDS011;42956;51.366;11.298;2023-07-29T07:15:09;1.35;;;1.25;;
57071;SDS011;42956;51.366;11.298;2023-07-29T07:17:39;1.98;;;1.40;;
57071;SDS011;42956;51.366;11.298;2023-07-29T07:20:09;1.27;;;1.10;;
57071;SDS011;42956;51.366;11.298;2023-07-29T07:22:40;1.27;;;1.17;;
57071;SDS011;42956;51.366;11.298;2023-07-29T07:25:09;1.30;;;1.20;;
57071;SDS011;42956;51.366;11.298;2023-07-29T07:27:42;1.33;;;1.23;;
57071;SDS011;42956;51.366;11.298;2023-07-29T07:30:12;4.82;;;1.20;;
57071;SDS011;42956;51.366;11.298;2023-07-29T07:32:43;2.47;;;1.27;;
57071;SDS011;42956;51.366;11.298;2023-07-29T07:35:14;1.50;;;1.40;;
57071;SDS011;42956;51.366;11.298;2023-07-29T07:37:44;2.35;;;1.38;;
57071;SDS011;42956;51.366;11.298;2023-07-29T07:52:38;1.60;;;1.23;;
57071;SDS011;42956;51.366;11.298;2023-07-29T07:55:09;1.05;;;0.85;;
57071;SDS011;42956;51.366;11.298;2023-07-29T07:57:41;1.97;;;0.90;;
57071;SDS011;42956;51.366;11.298;2023-07-29T08:00:11;2.08;;;1.10;;
57071;SDS011;42956;51.366;11.298;2023-07-29T08:02:43;1.17;;;1.00;;
57071;SDS011;42956;51.366;11.298;2023-07-29T08:05:13;1.35;;;1.25;;
57071;SDS011;42956;51.366;11.298;2023-07-29T08:07:46;2.45;;;0.90;;
57071;SDS011;42956;51.366;11.298;2023-07-29T08:10:16;1.20;;;1.00;;
57071;SDS011;42956;51.366;11.298;2023-07-29T08:12:46;11.65;;;1.52;;
57071;SDS011;42956;51.366;11.298;2023-07-29T08:15:16;1.00;;;0.90;;
57071;SDS011;42956;51.366;11.298;2023-07-29T08:17:46;4.18;;;1.08;;
57071;SDS011;42956;51.366;11.298;2023-07-29T08:20:16;1.40;;;0.90;;
57071;SDS011;42956;51.366;11.298;2023-07-29T08:22:49;1.10;;;0.93;;
57071;SDS011;42956;51.366;11.298;2023-07-29T08:25:19;0.98;;;0.98;;
57071;SDS011;42956;51.366;11.298;2023-07-29T08:27:49;0.93;;;0.82;;
57071;SDS011;42956;51.366;11.298;2023-07-29T08:30:19;0.65;;;0.65;;
57071;SDS011;42956;51.366;11.298;2023-07-29T08:32:49;2.75;;;1.02;;
57071;SDS011;42956;51.366;11.298;2023-07-29T08:35:18;1.83;;;1.15;;
57071;SDS011;42956;51.366;11.298;2023-07-29T08:37:51;1.63;;;1.17;;
57071;SDS011;42956;51.366;11.298;2023-07-29T08:40:22;1.83;;;1.70;;
57071;SDS011;42956;51.366;11.298;2023-07-29T08:42:56;2.65;;;1.10;;
57071;SDS011;42956;51.366;11.298;2023-07-29T08:45:27;2.78;;;1.48;;
57071;SDS011;42956;51.366;11.298;2023-07-29T08:47:58;0.77;;;0.70;;
57071;SDS011;42956;51.366;11.298;2023-07-29T08:50:29;1.75;;;0.90;;
57071;SDS011;42956;51.366;11.298;2023-07-29T08:53:03;1.10;;;1.00;;
57071;SDS011;42956;51.366;11.298;2023-07-29T08:55:33;3.00;;;0.93;;
57071;SDS011;42956;51.366;11.298;2023-07-29T08:58:03;0.70;;;0.70;;
57071;SDS011;42956;51.366;11.298;2023-07-29T09:00:33;1.10;;;1.00;;
57071;SDS011;42956;51.366;11.298;2023-07-29T09:03:04;1.00;;;0.90;;
57071;SDS011;42956;51.366;11.298;2023-07-29T09:05:34;1.05;;;0.95;;
57071;SDS011;42956;51.366;11.298;2023-07-29T09:08:07;2.28;;;1.00;;
57071;SDS011;42956;51.366;11.298;2023-07-29T09:10:37;2.03;;;1.10;;
57071;SDS011;42956;51.366;11.298;2023-07-29T09:13:07;1.50;;;0.75;;
57071;SDS011;42956;51.366;11.298;2023-07-29T09:15:37;2.30;;;0.88;;
57071;SDS011;42956;51.366;11.298;2023-07-29T09:18:09;1.75;;;1.65;;
57071;SDS011;42956;51.366;11.298;2023-07-29T09:20:39;1.38;;;1.05;;
57071;SDS011;42956;51.366;11.298;2023-07-29T09:23:12;2.88;;;0.82;;
57071;SDS011;42956;51.366;11.298;2023-07-29T09:25:42;1.20;;;1.10;;
57071;SDS011;42956;51.366;11.298;2023-07-29T09:28:13;2.33;;;1.20;;
57071;SDS011;42956;51.366;11.298;2023-07-29T09:30:45;1.23;;;1.13;;
57071;SDS011;42956;51.366;11.298;2023-07-29T09:33:15;1.70;;;1.30;;
57071;SDS011;42956;51.366;11.298;2023-07-29T09:35:47;2.47;;;1.30;;
57071;SDS011;42956;51.366;11.298;2023-07-29T09:38:25;1.92;;;1.30;;
57071;SDS011;42956;51.366;11.298;2023-07-29T09:40:56;2.20;;;1.20;;
57071;SDS011;42956;51.366;11.298;2023-07-29T09:43:28;3.55;;;1.30;;
57071;SDS011;42956;51.366;11.298;2023-07-29T09:45:59;3.75;;;1.25;;
57071;SDS011;42956;51.366;11.298;2023-07-29T09:48:32;1.05;;;0.98;;
57071;SDS011;42956;51.366;11.298;2023-07-29T09:51:09;1.17;;;1.00;;
57071;SDS011;42956;51.366;11.298;2023-07-29T09:53:42;1.40;;;1.27;;
57071;SDS011;42956;51.366;11.298;2023-07-29T09:56:14;1.88;;;1.20;;
57071;SDS011;42956;51.366;11.298;2023-07-29T09:58:44;6.22;;;1.30;;
57071;SDS011;42956;51.366;11.298;2023-07-29T10:01:14;1.27;;;1.05;;
57071;SDS011;42956;51.366;11.298;2023-07-29T10:03:44;2.53;;;0.90;;
57071;SDS011;42956;51.366;11.298;2023-07-29T10:06:14;1.23;;;1.13;;
57071;SDS011;42956;51.366;11.298;2023-07-29T10:08:47;1.63;;;1.30;;
57071;SDS011;42956;51.366;11.298;2023-07-29T10:11:18;1.50;;;1.05;;
57071;SDS011;42956;51.366;11.298;2023-07-29T10:13:52;3.08;;;1.13;;
57071;SDS011;42956;51.366;11.298;2023-07-29T10:16:34;0.88;;;0.88;;
57071;SDS011;42956;51.366;11.298;2023-07-29T10:19:05;2.70;;;1.00;;
57071;SDS011;42956;51.366;11.298;2023-07-29T10:21:36;0.98;;;0.90;;
57071;SDS011;42956;51.366;11.298;2023-07-29T10:24:11;1.67;;;1.40;;
57071;SDS011;42956;51.366;11.298;2023-07-29T10:26:44;3.40;;;1.40;;
57071;SDS011;42956;51.366;11.298;2023-07-29T10:31:46;1.40;;;1.25;;
57071;SDS011;42956;51.366;11.298;2023-07-29T10:34:16;2.40;;;1.60;;
57071;SDS011;42956;51.366;11.298;2023-07-29T10:36:47;1.73;;;1.30;;
57071;SDS011;42956;51.366;11.298;2023-07-29T10:39:20;2.03;;;1.25;;
57071;SDS011;42956;51.366;11.298;2023-07-29T10:41:57;1.30;;;1.20;;
57071;SDS011;42956;51.366;11.298;2023-07-29T10:47:12;4.18;;;1.30;;
57071;SDS011;42956;51.366;11.298;2023-07-29T10:49:43;1.38;;;1.27;;
57071;SDS011;42956;51.366;11.298;2023-07-29T10:52:13;1.33;;;1.23;;
57071;SDS011;42956;51.366;11.298;2023-07-29T10:54:47;1.60;;;1.50;;
57071;SDS011;42956;51.366;11.298;2023-07-29T10:57:19;1.48;;;1.10;;
57071;SDS011;42956;51.366;11.298;2023-07-29T11:00:00;4.87;;;1.50;;
57071;SDS011;42956;51.366;11.298;2023-07-29T11:02:30;2.10;;;1.02;;
57071;SDS011;42956;51.366;11.298;2023-07-29T11:05:04;2.45;;;1.88;;
57071;SDS011;42956;51.366;11.298;2023-07-29T11:07:42;1.67;;;1.30;;
57071;SDS011;42956;51.366;11.298;2023-07-29T11:10:15;3.42;;;1.45;;
57071;SDS011;42956;51.366;11.298;2023-07-29T11:12:46;2.15;;;1.15;;
57071;SDS011;42956;51.366;11.298;2023-07-29T11:15:18;1.27;;;1.15;;
57071;SDS011;42956;51.366;11.298;2023-07-29T11:17:49;2.78;;;1.25;;
57071;SDS011;42956;51.366;11.298;2023-07-29T11:20:20;1.52;;;1.40;;
57071;SDS011;42956;51.366;11.298;2023-07-29T11:22:50;3.80;;;2.38;;
57071;SDS011;42956;51.366;11.298;2023-07-29T11:25:24;1.70;;;1.30;;
57071;SDS011;42956;51.366;11.298;2023-07-29T11:27:55;2.78;;;1.65;;
57071;SDS011;42956;51.366;11.298;2023-07-29T11:30:25;1.83;;;1.38;;
57071;SDS011;42956;51.366;11.298;2023-07-29T11:32:57;5.28;;;1.27;;
57071;SDS011;42956;51.366;11.298;2023-07-29T11:35:27;1.25;;;1.15;;
57071;SDS011;42956;51.366;11.298;2023-07-29T11:37:57;2.05;;;1.35;;
57071;SDS011;42956;51.366;11.298;2023-07-29T11:40:30;1.30;;;1.20;;
57071;SDS011;42956;51.366;11.298;2023-07-29T11:43:00;1.02;;;1.02;;
57071;SDS011;42956;51.366;11.298;2023-07-29T11:45:30;3.65;;;1.25;;
57071;SDS011;42956;51.366;11.298;2023-07-29T11:48:17;1.65;;;1.02;;
57071;SDS011;42956;51.366;11.298;2023-07-29T11:50:47;1.75;;;0.90;;
57071;SDS011;42956;51.366;11.298;2023-07-29T11:53:17;1.77;;;1.20;;
57071;SDS011;42956;51.366;11.298;2023-07-29T11:55:52;1.40;;;1.30;;
57071;SDS011;42956;51.366;11.298;2023-07-29T11:58:22;5.43;;;1.27;;
57071;SDS011;42956;51.366;11.298;2023-07-29T12:00:53;2.92;;;1.88;;
57071;SDS011;42956;51.366;11.298;2023-07-29T12:03:22;1.20;;;1.10;;
57071;SDS011;42956;51.366;11.298;2023-07-29T12:05:53;1.77;;;1.23;;
57071;SDS011;42956;51.366;11.298;2023-07-29T12:08:23;7.22;;;1.60;;
57071;SDS011;42956;51.366;11.298;2023-07-29T12:10:56;2.03;;;1.58;;
57071;SDS011;42956;51.366;11.298;2023-07-29T12:13:26;1.95;;;1.10;;
57071;SDS011;42956;51.366;11.298;2023-07-29T12:16:00;2.22;;;1.13;;
57071;SDS011;42956;51.366;11.298;2023-07-29T12:18:30;1.75;;;1.13;;
57071;SDS011;42956;51.366;11.298;2023-07-29T12:21:01;1.05;;;1.00;;
57071;SDS011;42956;51.366;11.298;2023-07-29T12:23:31;1.77;;;1.08;;
57071;SDS011;42956;51.366;11.298;2023-07-29T12:26:03;3.03;;;1.35;;
57071;SDS011;42956;51.366;11.298;2023-07-29T12:28:33;1.15;;;1.02;;
57071;SDS011;42956;51.366;11.298;2023-07-29T12:31:06;1.45;;;1.10;;
57071;SDS011;42956;51.366;11.298;2023-07-29T12:33:36;1.85;;;1.67;;
57071;SDS011;42956;51.366;11.298;2023-07-29T12:36:09;1.67;;;1.45;;
57071;SDS011;42956;51.366;11.298;2023-07-29T12:38:39;4.25;;;1.35;;
57071;SDS011;42956;51.366;11.298;2023-07-29T12:41:15;1.38;;;1.27;;
57071;SDS011;42956;51.366;11.298;2023-07-29T12:43:45;2.28;;;1.40;;
57071;SDS011;42956;51.366;11.298;2023-07-29T12:46:15;2.50;;;1.42;;
57071;SDS011;42956;51.366;11.298;2023-07-29T12:48:45;1.48;;;1.38;;
57071;SDS011;42956;51.366;11.298;2023-07-29T12:51:15;2.03;;;1.80;;
57071;SDS011;42956;51.366;11.298;2023-07-29T12:53:45;3.22;;;1.67;;
57071;SDS011;42956;51.366;11.298;2023-07-29T12:56:19;2.35;;;1.50;;
57071;SDS011;42956;51.366;11.298;2023-07-29T12:58:49;2.13;;;1.83;;
57071;SDS011;42956;51.366;11.298;2023-07-29T13:01:19;1.27;;;1.17;;
57071;SDS011;42956;51.366;11.298;2023-07-29T13:03:49;3.50;;;1.60;;
57071;SDS011;42956;51.366;11.298;2023-07-29T13:06:19;2.20;;;1.42;;
57071;SDS011;42956;51.366;11.298;2023-07-29T13:08:48;1.40;;;1.30;;
57071;SDS011;42956;51.366;11.298;2023-07-29T13:11:21;4.82;;;1.60;;
57071;SDS011;42956;51.366;11.298;2023-07-29T13:13:51;2.20;;;1.63;;
57071;SDS011;42956;51.366;11.298;2023-07-29T13:16:21;4.20;;;1.50;;
57071;SDS011;42956;51.366;11.298;2023-07-29T13:18:51;2.20;;;1.70;;
57071;SDS011;42956;51.366;11.298;2023-07-29T13:21:21;2.17;;;1.80;;
57071;SDS011;42956;51.366;11.298;2023-07-29T13:23:51;6.40;;;1.63;;
57071;SDS011;42956;51.366;11.298;2023-07-29T13:26:24;1.90;;;1.70;;
57071;SDS011;42956;51.366;11.298;2023-07-29T13:28:54;3.30;;;1.67;;
57071;SDS011;42956;51.366;11.298;2023-07-29T13:31:24;4.18;;;1.60;;
57071;SDS011;42956;51.366;11.298;2023-07-29T13:33:54;1.67;;;1.58;;
57071;SDS011;42956;51.366;11.298;2023-07-29T13:36:24;2.95;;;1.52;;
57071;SDS011;42956;51.366;11.298;2023-07-29T13:38:54;6.50;;;1.70;;
57071;SDS011;42956;51.366;11.298;2023-07-29T13:41:26;2.53;;;1.75;;
57071;SDS011;42956;51.366;11.298;2023-07-29T13:43:56;4.38;;;1.52;;
57071;SDS011;42956;51.366;11.298;2023-07-29T13:46:26;1.77;;;1.40;;
57071;SDS011;42956;51.366;11.298;2023-07-29T13:48:56;1.58;;;1.38;;
57071;SDS011;42956;51.366;11.298;2023-07-29T13:51:26;2.08;;;1.38;;
57071;SDS011;42956;51.366;11.298;2023-07-29T13:53:56;4.93;;;1.83;;
57071;SDS011;42956;51.366;11.298;2023-07-29T13:56:29;2.90;;;1.60;;
57071;SDS011;42956;51.366;11.298;2023-07-29T13:58:59;3.80;;;2.30;;
57071;SDS011;42956;51.366;11.298;2023-07-29T14:01:29;6.38;;;2.08;;
57071;SDS011;42956;51.366;11.298;2023-07-29T14:03:59;3.92;;;1.98;;
57071;SDS011;42956;51.366;11.298;2023-07-29T14:06:29;5.80;;;1.60;;
57071;SDS011;42956;51.366;11.298;2023-07-29T14:09:12;5.32;;;2.13;;
57071;SDS011;42956;51.366;11.298;2023-07-29T14:11:44;5.40;;;2.15;;
57071;SDS011;42956;51.366;11.298;2023-07-29T14:14:14;6.57;;;2.53;;
57071;SDS011;42956;51.366;11.298;2023-07-29T14:16:48;10.63;;;2.85;;
57071;SDS011;42956;51.366;11.298;2023-07-29T14:19:18;7.72;;;2.50;;
57071;SDS011;42956;51.366;11.298;2023-07-29T14:21:48;6.22;;;3.15;;
57071;SDS011;42956;51.366;11.298;2023-07-29T14:24:18;7.03;;;2.38;;
57071;SDS011;42956;51.366;11.298;2023-07-29T14:26:52;8.50;;;2.42;;
57071;SDS011;42956;51.366;11.298;2023-07-29T14:29:22;4.57;;;2.60;;
57071;SDS011;42956;51.366;11.298;2023-07-29T14:31:52;5.90;;;2.28;;
57071;SDS011;42956;51.366;11.298;2023-07-29T14:34:22;3.38;;;2.15;;
57071;SDS011;42956;51.366;11.298;2023-07-29T14:36:53;2.20;;;2.00;;
57071;SDS011;42956;51.366;11.298;2023-07-29T14:39:23;3.58;;;1.98;;
57071;SDS011;42956;51.366;11.298;2023-07-29T14:41:56;1.98;;;1.42;;
57071;SDS011;42956;51.366;11.298;2023-07-29T14:44:26;1.80;;;1.63;;
57071;SDS011;42956;51.366;11.298;2023-07-29T14:46:56;3.67;;;2.35;;
57071;SDS011;42956;51.366;11.298;2023-07-29T14:49:26;3.33;;;1.85;;
57071;SDS011;42956;51.366;11.298;2023-07-29T14:51:56;1.80;;;1.55;;
57071;SDS011;42956;51.366;11.298;2023-07-29T14:54:26;3.17;;;2.10;;
57071;SDS011;42956;51.366;11.298;2023-07-29T14:56:59;3.03;;;2.33;;
57071;SDS011;42956;51.366;11.298;2023-07-29T14:59:29;3.10;;;1.95;;
57071;SDS011;42956;51.366;11.298;2023-07-29T15:01:58;4.32;;;2.10;;
57071;SDS011;42956;51.366;11.298;2023-07-29T15:04:29;3.03;;;2.10;;
57071;SDS011;42956;51.366;11.298;2023-07-29T15:06:59;3.20;;;1.92;;
57071;SDS011;42956;51.366;11.298;2023-07-29T15:09:29;2.50;;;2.28;;
57071;SDS011;42956;51.366;11.298;2023-07-29T15:12:01;2.00;;;1.60;;
57071;SDS011;42956;51.366;11.298;2023-07-29T15:14:31;4.25;;;2.58;;
57071;SDS011;42956;51.366;11.298;2023-07-29T15:17:02;2.47;;;1.88;;
57071;SDS011;42956;51.366;11.298;2023-07-29T15:19:32;2.97;;;2.22;;
57071;SDS011;42956;51.366;11.298;2023-07-29T15:22:02;2.25;;;2.05;;